Time;durP1;ratioP1;P1;durP2;ratioP2;P2;SDS_P1;SDS_P2;PMS_P1;PMS_P2;Temp;Humidity;BMP_temperature;BMP_pressure;BME280_temperature;BME280_humidity;BME280_pressure;Samples;Min_cycle;Max_cycle;Signal;HPM_P1;HPM_P2
2022/05/04 00:00:23;;;;;;;4.45;3.78;;;9.80;99.90;;;;;;4998510;28;20056;-82
2022/05/04 00:02:52;;;;;;;4.85;3.75;;;9.90;99.90;;;;;;4993026;28;20073;-82
2022/05/04 00:05:22;;;;;;;5.50;3.70;;;9.90;99.90;;;;;;4987839;28;20054;-82
2022/05/04 00:07:49;;;;;;;4.63;4.07;;;9.90;99.90;;;;;;4986115;28;20046;-83
2022/05/04 00:10:18;;;;;;;4.90;4.50;;;10.00;99.90;;;;;;4985531;28;20386;-83
2022/05/04 00:12:45;;;;;;;4.82;4.43;;;10.00;99.90;;;;;;4971098;28;20057;-83
2022/05/04 00:15:13;;;;;;;6.75;4.05;;;10.00;99.90;;;;;;4984933;28;20039;-82
2022/05/04 00:17:41;;;;;;;4.65;4.15;;;10.00;99.90;;;;;;4985929;28;20505;-82
2022/05/04 00:20:09;;;;;;;8.02;5.13;;;10.00;99.90;;;;;;4984168;28;20415;-82
2022/05/04 00:22:36;;;;;;;5.05;4.18;;;10.00;99.90;;;;;;4969640;28;20049;-82
2022/05/04 00:25:20;;;;;;;4.05;3.35;;;10.00;99.90;;;;;;4970680;28;20061;-83
2022/05/04 00:28:30;;;;;;;7.22;4.25;;;10.00;99.90;;;;;;4953701;28;20058;-83
2022/05/04 00:31:46;;;;;;;4.40;4.07;;;10.00;99.90;;;;;;4987541;28;20047;-83
2022/05/04 00:34:59;;;;;;;4.22;3.83;;;9.90;99.90;;;;;;4987362;28;20049;-82
2022/05/04 00:38:14;;;;;;;5.57;5.07;;;9.80;99.90;;;;;;4973769;28;20042;-83
2022/05/04 00:41:15;;;;;;;6.75;4.07;;;9.80;99.90;;;;;;4986375;28;20054;-82
2022/05/04 00:43:50;;;;;;;4.20;3.30;;;9.90;99.90;;;;;;4985075;28;20055;-82
2022/05/04 00:46:19;;;;;;;5.95;4.43;;;9.90;99.90;;;;;;4970174;28;20724;-82
2022/05/04 00:48:48;;;;;;;5.15;4.63;;;9.90;99.90;;;;;;4985892;28;20050;-83
2022/05/04 00:51:16;;;;;;;5.05;4.57;;;10.00;99.90;;;;;;4986660;28;20476;-82
2022/05/04 00:53:45;;;;;;;6.65;4.68;;;10.00;99.90;;;;;;4985893;28;20161;-83
2022/05/04 00:56:15;;;;;;;7.90;4.47;;;10.00;99.90;;;;;;4987892;28;20500;-83
2022/05/04 00:58:56;;;;;;;5.10;4.60;;;10.00;99.90;;;;;;4987032;28;20049;-82
2022/05/04 01:01:29;;;;;;;11.75;4.47;;;10.00;99.90;;;;;;4987594;28;20057;-82
2022/05/04 01:03:58;;;;;;;5.75;5.25;;;10.10;99.90;;;;;;4986932;28;20054;-82
2022/05/04 01:06:27;;;;;;;8.45;6.22;;;10.10;99.90;;;;;;4969263;28;20049;-82
2022/05/04 01:08:56;;;;;;;14.00;5.18;;;10.00;99.90;;;;;;4987216;28;20649;-81
2022/05/04 01:11:23;;;;;;;4.70;4.13;;;10.00;99.90;;;;;;4987301;28;20066;-82
2022/05/04 01:14:02;;;;;;;5.07;3.88;;;10.00;99.90;;;;;;4987370;28;20393;-82
2022/05/04 01:16:31;;;;;;;4.68;4.05;;;9.90;99.90;;;;;;4987277;28;20050;-82
2022/05/04 01:19:00;;;;;;;5.80;4.70;;;10.00;99.90;;;;;;4986975;28;20047;-81
2022/05/04 01:21:28;;;;;;;6.07;5.53;;;10.00;99.90;;;;;;4987060;28;20046;-81
2022/05/04 01:23:59;;;;;;;5.20;4.70;;;10.00;99.90;;;;;;4987204;28;20768;-81
2022/05/04 01:26:27;;;;;;;;;;;10.00;99.90;;;;;;4987642;28;20413;-81
2022/05/04 01:28:55;;;;;;;4.22;3.92;;;10.00;99.90;;;;;;4986658;28;20296;-82
2022/05/04 01:31:23;;;;;;;6.40;5.80;;;9.90;99.90;;;;;;4986953;28;20054;-81
2022/05/04 01:33:51;;;;;;;8.05;4.90;;;9.90;99.90;;;;;;4985454;28;20081;-81
2022/05/04 01:36:19;;;;;;;3.75;3.45;;;9.90;99.90;;;;;;4987200;28;20050;-82
2022/05/04 01:38:47;;;;;;;4.45;4.05;;;9.80;99.90;;;;;;4986410;28;20050;-82
2022/05/04 01:44:01;;;;;;;5.57;5.07;;;9.80;99.90;;;;;;4986568;28;20046;-81
2022/05/04 01:46:28;;;;;;;5.80;5.25;;;9.70;99.90;;;;;;4986484;28;20038;-81
2022/05/04 01:48:56;;;;;;;4.20;3.75;;;9.70;99.90;;;;;;4987033;28;20054;-82
2022/05/04 01:51:24;;;;;;;6.68;5.03;;;9.70;99.90;;;;;;4982743;28;20057;-82
2022/05/04 01:53:52;;;;;;;4.35;3.95;;;9.70;99.90;;;;;;4978669;28;20406;-82
2022/05/04 01:56:20;;;;;;;6.15;5.53;;;9.70;99.90;;;;;;4976186;28;20058;-82
2022/05/04 01:58:48;;;;;;;5.60;4.18;;;9.70;99.90;;;;;;4985750;28;20065;-82
2022/05/04 02:01:16;;;;;;;11.77;6.07;;;9.60;99.90;;;;;;4985684;28;20053;-82
2022/05/04 02:03:45;;;;;;;6.20;4.05;;;9.60;99.90;;;;;;4986603;28;20058;-82
2022/05/04 02:06:13;;;;;;;5.65;5.10;;;9.60;99.90;;;;;;4984607;28;20045;-82
2022/05/04 02:08:41;;;;;;;6.05;4.75;;;9.60;99.90;;;;;;4986929;28;20051;-82
2022/05/04 02:11:09;;;;;;;5.03;4.53;;;9.60;99.90;;;;;;4986690;28;20391;-82
2022/05/04 02:13:37;;;;;;;4.90;3.97;;;9.50;99.90;;;;;;4985384;28;20065;-82
2022/05/04 02:16:07;;;;;;;12.88;5.22;;;9.50;99.90;;;;;;4986840;28;20046;-82
2022/05/04 02:18:35;;;;;;;4.03;3.63;;;9.40;99.90;;;;;;4986316;28;20061;-82
2022/05/04 02:21:03;;;;;;;4.65;4.18;;;9.30;99.90;;;;;;4986315;28;20061;-82
2022/05/04 02:23:31;;;;;;;6.80;5.32;;;9.30;99.90;;;;;;4986413;28;20061;-82
2022/05/04 02:25:59;;;;;;;3.53;3.22;;;9.40;99.90;;;;;;4986540;28;20552;-82
2022/05/04 02:28:27;;;;;;;4.03;3.45;;;9.40;99.90;;;;;;4986771;28;20054;-82
2022/05/04 02:30:57;;;;;;;5.82;5.25;;;9.40;99.90;;;;;;4986086;28;20366;-82
2022/05/04 02:33:31;;;;;;;6.13;5.57;;;9.40;99.90;;;;;;4986569;28;20663;-82
2022/05/04 02:38:45;;;;;;;4.55;4.20;;;9.40;99.90;;;;;;4986641;28;20050;-82
2022/05/04 02:41:14;;;;;;;4.55;4.15;;;9.40;99.90;;;;;;4990295;28;20477;-81
2022/05/04 02:43:41;;;;;;;5.05;4.18;;;9.40;99.90;;;;;;4988518;28;20050;-82
2022/05/04 02:46:18;;;;;;;5.30;4.43;;;9.30;99.90;;;;;;4988184;28;20054;-82
2022/05/04 02:48:46;;;;;;;10.32;4.40;;;9.30;99.90;;;;;;4976429;28;20047;-82
2022/05/04 02:51:14;;;;;;;27.48;7.28;;;9.20;99.90;;;;;;4981499;28;20046;-82
2022/05/04 02:53:42;;;;;;;4.38;3.80;;;9.20;99.90;;;;;;4977133;28;20062;-82
2022/05/04 02:56:11;;;;;;;5.97;5.45;;;9.10;99.90;;;;;;4971963;28;20050;-82
2022/05/04 02:58:38;;;;;;;6.15;4.88;;;9.20;99.90;;;;;;4975017;28;20410;-82
2022/05/04 03:02:26;;;;;;;5.13;4.57;;;9.20;99.90;;;;;;4986033;28;20077;-82
2022/05/04 03:03:58;;;;;;;;;;;9.20;99.90;;;;;;4989508;28;20456;-82
2022/05/04 03:06:26;;;;;;;5.55;5.05;;;9.20;99.90;;;;;;4988843;28;19925;-82
2022/05/04 03:08:53;;;;;;;4.88;4.45;;;9.20;99.90;;;;;;4988424;28;20046;-82
2022/05/04 03:14:07;;;;;;;31.77;9.55;;;9.00;99.90;;;;;;4973402;28;20039;-82
2022/05/04 03:16:36;;;;;;;4.85;4.32;;;8.90;99.90;;;;;;4989813;28;20054;-82
2022/05/04 03:19:06;;;;;;;5.70;5.20;;;8.80;99.90;;;;;;4987406;28;20610;-82
2022/05/04 03:21:40;;;;;;;21.63;9.15;;;8.70;99.90;;;;;;4978494;28;20055;-82
2022/05/04 03:24:08;;;;;;;5.30;4.80;;;8.70;99.90;;;;;;4972090;28;20473;-82
2022/05/04 03:26:36;;;;;;;4.68;4.22;;;8.60;99.90;;;;;;4978764;28;20055;-82
2022/05/04 03:29:03;;;;;;;5.90;4.28;;;8.70;99.90;;;;;;4970454;28;20525;-82
2022/05/04 03:31:31;;;;;;;9.02;6.07;;;8.70;99.90;;;;;;4978865;28;20047;-82
2022/05/04 03:34:00;;;;;;;6.07;4.45;;;8.70;99.90;;;;;;4969383;28;20061;-81
2022/05/04 03:36:28;;;;;;;7.72;5.22;;;8.70;99.90;;;;;;4978428;28;20050;-82
2022/05/04 03:38:56;;;;;;;6.13;5.43;;;8.60;99.90;;;;;;4987562;28;20050;-82
2022/05/04 03:41:23;;;;;;;14.93;7.18;;;8.70;99.90;;;;;;4987922;28;20405;-82
2022/05/04 03:43:52;;;;;;;4.05;3.67;;;8.60;99.90;;;;;;4987630;28;20050;-82
2022/05/04 03:46:26;;;;;;;4.30;3.97;;;8.70;99.90;;;;;;4986769;28;20497;-82
2022/05/04 03:48:58;;;;;;;5.03;4.60;;;8.60;99.90;;;;;;4979294;28;20051;-82
2022/05/04 03:51:26;;;;;;;6.28;5.22;;;8.50;99.90;;;;;;4981264;28;20046;-82
2022/05/04 03:53:54;;;;;;;4.68;4.25;;;8.50;99.90;;;;;;4988624;28;20490;-82
2022/05/04 03:56:21;;;;;;;4.00;3.70;;;8.50;99.90;;;;;;4989128;28;20050;-81
2022/05/04 03:58:49;;;;;;;5.03;4.30;;;8.50;99.90;;;;;;4970265;28;20756;-82
2022/05/04 04:01:20;;;;;;;4.43;4.03;;;8.50;99.90;;;;;;4983295;28;20050;-81
2022/05/04 04:03:48;;;;;;;5.28;4.70;;;8.60;99.90;;;;;;4967297;28;20050;-82
2022/05/04 04:06:16;;;;;;;5.00;4.50;;;8.60;99.90;;;;;;4968215;28;20050;-82
2022/05/04 04:08:49;;;;;;;7.85;6.55;;;8.70;99.90;;;;;;4980520;28;20061;-82
2022/05/04 04:11:18;;;;;;;4.55;4.13;;;8.80;99.90;;;;;;4987824;28;20057;-82
2022/05/04 04:13:48;;;;;;;4.10;3.80;;;8.80;99.90;;;;;;4982411;28;20054;-81
2022/05/04 04:16:16;;;;;;;4.75;4.32;;;8.80;99.90;;;;;;4977740;28;20425;-81
2022/05/04 04:18:45;;;;;;;4.50;4.07;;;8.90;99.90;;;;;;4953382;28;20047;-81
2022/05/04 04:24:00;;;;;;;5.35;4.35;;;9.00;99.90;;;;;;4943480;29;20052;-82
2022/05/04 04:26:27;;;;;;;4.55;4.15;;;9.00;99.90;;;;;;4946652;28;20039;-81
2022/05/04 04:28:55;;;;;;;4.95;4.53;;;9.00;99.90;;;;;;4946948;28;20055;-82
2022/05/04 04:31:23;;;;;;;5.20;4.70;;;9.00;99.90;;;;;;4945591;28;20056;-82
2022/05/04 04:33:51;;;;;;;5.90;5.07;;;9.10;99.90;;;;;;4950698;28;20454;-82
2022/05/04 04:36:19;;;;;;;5.15;4.70;;;9.10;99.90;;;;;;4937229;29;20059;-82
2022/05/04 04:38:49;;;;;;;5.75;3.78;;;9.10;99.90;;;;;;4920768;29;20054;-83
2022/05/04 04:41:23;;;;;;;5.65;3.88;;;9.10;99.90;;;;;;4913949;29;20051;-84
2022/05/04 04:43:51;;;;;;;5.15;3.83;;;9.20;99.90;;;;;;4936019;28;20053;-85
2022/05/04 04:46:19;;;;;;;12.88;7.03;;;9.30;99.90;;;;;;4979988;28;20042;-84
2022/05/04 04:48:48;;;;;;;13.50;7.97;;;9.40;99.90;;;;;;4980187;28;20058;-84
2022/05/04 04:51:17;;;;;;;15.55;9.55;;;9.60;99.90;;;;;;4967127;28;20053;-85
2022/05/04 04:53:46;;;;;;;36.45;13.93;;;9.60;99.90;;;;;;4979497;28;20057;-86
2022/05/04 04:56:17;;;;;;;37.58;14.07;;;9.60;99.90;;;;;;4980353;28;20043;-88
2022/05/04 04:58:47;;;;;;;16.63;8.90;;;9.60;99.90;;;;;;4979087;28;20038;-85
2022/05/04 05:01:15;;;;;;;14.48;8.15;;;9.70;99.90;;;;;;4983688;28;20046;-89
2022/05/04 05:03:43;;;;;;;12.70;7.68;;;9.80;99.90;;;;;;4980964;28;20592;-88
2022/05/04 05:06:12;;;;;;;11.57;8.07;;;9.90;99.90;;;;;;4978944;28;20050;-86
2022/05/04 05:08:43;;;;;;;16.80;9.00;;;9.90;99.90;;;;;;4981081;28;20050;-86
2022/05/04 05:11:13;;;;;;;12.43;8.48;;;10.00;99.90;;;;;;4981870;28;20046;-86
2022/05/04 05:16:48;;;;;;;8.68;5.32;;;10.20;99.90;;;;;;4979814;28;20067;-84
2022/05/04 05:19:21;;;;;;;14.57;5.75;;;10.30;99.90;;;;;;4983258;28;20077;-85
2022/05/04 05:21:52;;;;;;;7.75;5.50;;;10.30;99.90;;;;;;4970772;28;20046;-85
2022/05/04 05:24:20;;;;;;;6.15;5.65;;;10.30;99.90;;;;;;4978458;28;20046;-85
2022/05/04 05:26:51;;;;;;;7.30;5.22;;;10.40;99.90;;;;;;4986203;28;20054;-83
2022/05/04 05:29:23;;;;;;;5.47;4.82;;;10.40;99.90;;;;;;4988319;28;20809;-85
2022/05/04 05:31:50;;;;;;;5.25;4.75;;;10.40;99.90;;;;;;4975092;28;20061;-83
2022/05/04 05:34:18;;;;;;;5.60;4.95;;;10.40;99.90;;;;;;4982219;28;20046;-86
2022/05/04 05:36:50;;;;;;;5.18;4.45;;;10.40;99.90;;;;;;4969522;28;20505;-85
2022/05/04 05:39:24;;;;;;;6.78;5.18;;;10.50;99.90;;;;;;4986659;28;20046;-84
2022/05/04 05:41:52;;;;;;;5.35;4.88;;;10.60;99.90;;;;;;4983447;28;20046;-84
2022/05/04 05:44:20;;;;;;;5.05;4.65;;;10.70;99.90;;;;;;4978601;28;20043;-85
2022/05/04 05:46:48;;;;;;;6.35;5.78;;;10.70;99.90;;;;;;4977523;28;20059;-84
2022/05/04 05:49:16;;;;;;;5.20;4.55;;;10.80;99.90;;;;;;4967470;28;20055;-85
2022/05/04 05:51:44;;;;;;;4.50;4.07;;;10.80;99.90;;;;;;4982113;28;20069;-84
2022/05/04 05:54:14;;;;;;;5.53;4.63;;;10.90;99.90;;;;;;4985071;28;20042;-84
2022/05/04 05:56:42;;;;;;;6.07;5.47;;;10.90;99.90;;;;;;4987035;28;20054;-83
2022/05/04 05:59:09;;;;;;;6.40;5.80;;;10.90;99.90;;;;;;4973289;28;20039;-83
2022/05/04 06:01:38;;;;;;;5.45;4.95;;;10.80;99.90;;;;;;4980419;28;20058;-83
2022/05/04 06:04:06;;;;;;;5.97;4.18;;;10.80;99.90;;;;;;4979748;28;20057;-83
2022/05/04 06:06:34;;;;;;;5.65;5.15;;;10.80;99.90;;;;;;4966904;28;20566;-84
2022/05/04 06:09:03;;;;;;;6.85;5.32;;;10.80;99.90;;;;;;4969897;28;20561;-83
2022/05/04 06:11:34;;;;;;;6.93;6.32;;;10.80;99.90;;;;;;4983629;28;20053;-84
2022/05/04 06:14:03;;;;;;;;;;;10.90;99.90;;;;;;4980045;28;20071;-84
2022/05/04 06:17:12;;;;;;;6.75;4.93;;;10.90;99.90;;;;;;4988938;28;19933;-85
2022/05/04 06:20:47;;;;;;;5.70;4.60;;;11.00;99.90;;;;;;4960940;28;20054;-84
2022/05/04 06:23:47;;;;;;;8.70;5.68;;;11.10;99.90;;;;;;4981465;28;20728;-84
2022/05/04 06:27:06;;;;;;;8.20;5.88;;;11.20;99.90;;;;;;4981050;28;20065;-84
2022/05/04 06:37:14;;;;;;;7.35;5.93;;;11.40;99.90;;;;;;4974817;28;20762;-85
2022/05/04 06:41:00;;;;;;;4.40;4.07;;;11.30;99.90;;;;;;4969380;28;20512;-85
2022/05/04 06:53:19;;;;;;;7.80;7.15;;;11.40;99.90;;;;;;4878572;29;20068;-85
2022/05/04 06:56:58;;;;;;;7.93;6.72;;;11.30;99.90;;;;;;4865065;29;20070;-84
2022/05/04 07:04:20;;;;;;;14.10;7.97;;;11.40;99.90;;;;;;4851832;29;20690;-85
2022/05/04 07:12:35;;;;;;;7.45;6.30;;;11.50;99.90;;;;;;4768589;29;20507;-85
2022/05/04 07:17:13;;;;;;;;;;;;;;;;;;;;;
2022/05/04 07:26:32;;;;;;;5.80;5.22;;;12.00;99.90;;;;;;4840238;29;20048;-86
2022/05/04 07:30:48;;;;;;;4.82;4.35;;;12.10;99.90;;;;;;4924394;28;20062;-85
2022/05/04 07:35:34;;;;;;;6.63;6.00;;;12.10;99.90;;;;;;4895766;28;20035;-86
2022/05/04 07:38:55;;;;;;;6.07;4.43;;;12.20;99.90;;;;;;4913377;28;20740;-86
2022/05/04 07:42:39;;;;;;;6.40;5.65;;;12.30;99.90;;;;;;4915811;28;20055;-86
2022/05/04 07:46:09;;;;;;;7.20;5.50;;;12.30;99.90;;;;;;4932110;28;20075;-86
2022/05/04 07:49:38;;;;;;;6.07;4.63;;;12.40;99.90;;;;;;4980372;28;20045;-87
2022/05/04 07:53:27;;;;;;;7.03;6.38;;;12.50;99.90;;;;;;4969641;28;20046;-86
2022/05/04 07:56:57;;;;;;;6.15;5.55;;;12.60;99.90;;;;;;4970789;28;20046;-86
2022/05/04 08:05:26;;;;;;;5.00;4.50;;;12.70;99.90;;;;;;4856571;29;20051;-87
2022/05/04 08:09:21;;;;;;;6.60;4.90;;;12.80;99.90;;;;;;4841876;29;20519;-87
2022/05/04 08:13:22;;;;;;;5.60;4.90;;;12.80;99.90;;;;;;4853080;29;20860;-85
2022/05/04 08:17:14;;;;;;;4.10;3.78;;;13.00;99.90;;;;;;4812717;29;20042;-86
2022/05/04 08:20:28;;;;;;;;;;;;;;;;;;;;;
2022/05/04 08:24:14;;;;;;;4.72;4.32;;;13.00;99.90;;;;;;4744989;30;20063;-86
2022/05/04 08:27:22;;;;;;;7.35;4.22;;;13.00;99.90;;;;;;4774976;29;20524;-85
2022/05/04 08:30:36;;;;;;;3.28;3.00;;;13.00;99.90;;;;;;4895035;29;20045;-86
2022/05/04 08:34:02;;;;;;;;;;;;;;;;;;;;;
2022/05/04 08:37:11;;;;;;;7.25;4.22;;;13.30;99.90;;;;;;4846369;29;20045;-86
2022/05/04 08:40:01;;;;;;;4.18;3.70;;;13.50;99.90;;;;;;4858785;29;20071;-86
2022/05/04 08:42:57;;;;;;;;;;;;;;;;;;;;;
2022/05/04 08:45:35;;;;;;;17.40;4.25;;;13.80;99.90;;;;;;4901422;29;20779;-86
2022/05/04 08:48:12;;;;;;;3.17;2.58;;;14.00;99.90;;;;;;4920142;29;20502;-86
2022/05/04 08:50:40;;;;;;;3.35;2.95;;;14.10;99.90;;;;;;4946615;28;20054;-86
2022/05/04 08:53:09;;;;;;;3.35;3.05;;;14.30;99.90;;;;;;4947408;28;20059;-87
2022/05/04 08:55:40;;;;;;;6.72;3.15;;;14.40;99.90;;;;;;4945004;28;20047;-87
2022/05/04 08:58:10;;;;;;;5.53;2.70;;;14.20;99.90;;;;;;4936250;28;20043;-88
2022/05/04 09:00:40;;;;;;;3.72;3.47;;;14.40;99.90;;;;;;4945710;29;20063;-87
2022/05/04 09:03:40;;;;;;;2.67;2.47;;;14.40;99.90;;;;;;4920431;28;20573;-88
2022/05/04 09:06:09;;;;;;;3.42;3.13;;;14.50;99.90;;;;;;4918790;29;20047;-87
2022/05/04 09:08:55;;;;;;;5.75;2.95;;;14.80;99.90;;;;;;4920655;29;20052;-87
2022/05/04 09:11:25;;;;;;;10.07;2.42;;;15.50;99.90;;;;;;4919971;28;20051;-86
2022/05/04 09:13:54;;;;;;;5.13;3.42;;;15.70;99.90;;;;;;4961798;28;20066;-87
2022/05/04 09:16:32;;;;;;;3.67;2.20;;;15.70;99.90;;;;;;4938024;29;20051;-86
2022/05/04 09:19:07;;;;;;;5.50;2.35;;;15.80;99.90;;;;;;4948536;28;20050;-87
2022/05/04 09:21:38;;;;;;;3.63;1.95;;;15.90;99.90;;;;;;4942175;28;20061;-87
2022/05/04 09:24:08;;;;;;;2.78;2.58;;;15.70;99.90;;;;;;4931028;28;20780;-87
2022/05/04 09:26:42;;;;;;;3.88;3.55;;;15.80;99.90;;;;;;4934233;28;20054;-86
2022/05/04 09:29:13;;;;;;;1.88;1.77;;;16.10;99.90;;;;;;4975479;28;20477;-87
2022/05/04 09:31:47;;;;;;;2.25;2.05;;;16.10;99.90;;;;;;4976306;28;20654;-86
2022/05/04 09:34:15;;;;;;;2.47;2.00;;;16.20;99.90;;;;;;4973689;28;20046;-86
2022/05/04 09:45:16;;;;;;;3.47;1.75;;;16.40;99.90;;;;;;4975731;28;20047;-86
2022/05/04 09:47:45;;;;;;;11.60;2.67;;;16.50;99.90;;;;;;4971141;28;20504;-85
2022/05/04 09:50:15;;;;;;;2.33;2.13;;;16.60;99.90;;;;;;4984244;28;20058;-86
2022/05/04 09:52:50;;;;;;;2.13;2.03;;;16.60;99.90;;;;;;4989161;28;20054;-86
2022/05/04 09:55:24;;;;;;;5.40;2.70;;;16.60;99.90;;;;;;4977849;28;20049;-86
2022/05/04 09:57:56;;;;;;;4.00;2.90;;;16.70;99.90;;;;;;4980311;28;20054;-86
2022/05/04 10:00:27;;;;;;;3.00;2.58;;;16.80;99.90;;;;;;4980654;28;20073;-86
2022/05/04 10:02:57;;;;;;;3.22;2.58;;;16.80;99.90;;;;;;4977316;28;20046;-87
2022/05/04 10:05:25;;;;;;;2.80;2.17;;;16.80;99.90;;;;;;4987893;28;20058;-86
2022/05/04 10:07:53;;;;;;;2.58;1.83;;;16.60;99.90;;;;;;4970606;28;20043;-87
2022/05/04 10:10:21;;;;;;;2.70;2.50;;;16.80;99.90;;;;;;4976419;28;20081;-87
2022/05/04 10:12:49;;;;;;;3.13;2.22;;;16.80;99.90;;;;;;4977622;28;20413;-87
2022/05/04 10:15:19;;;;;;;2.10;1.88;;;16.90;99.90;;;;;;4980729;28;20049;-84
2022/05/04 10:17:57;;;;;;;2.30;2.15;;;17.00;99.90;;;;;;4985226;28;20050;-85
2022/05/04 10:20:44;;;;;;;2.08;1.75;;;17.20;99.90;;;;;;4964300;28;20069;-86
2022/05/04 10:23:22;;;;;;;4.40;2.33;;;17.00;99.90;;;;;;4969657;28;20047;-84
2022/05/04 10:25:51;;;;;;;3.28;2.38;;;17.30;99.90;;;;;;4983685;28;20143;-85
2022/05/04 10:28:18;;;;;;;4.00;1.98;;;17.40;99.90;;;;;;4981869;28;20058;-86
2022/05/04 10:30:59;;;;;;;3.13;2.85;;;17.20;99.90;;;;;;4983969;28;20051;-84
2022/05/04 10:33:37;;;;;;;3.00;2.08;;;16.90;99.90;;;;;;4979508;28;20047;-85
2022/05/04 10:36:29;;;;;;;2.63;2.45;;;17.00;99.90;;;;;;4978539;28;20051;-85
2022/05/04 10:39:06;;;;;;;2.92;2.00;;;17.10;99.90;;;;;;4982271;28;20697;-84
2022/05/04 10:41:52;;;;;;;2.80;1.83;;;17.20;99.90;;;;;;4987515;28;20039;-84
2022/05/04 10:44:51;;;;;;;1.92;1.83;;;17.20;99.90;;;;;;4985261;28;20047;-84
2022/05/04 10:47:21;;;;;;;1.92;1.75;;;16.90;99.90;;;;;;4978824;28;20039;-84
2022/05/04 10:49:59;;;;;;;1.80;1.70;;;16.80;99.90;;;;;;4986622;28;20410;-85
2022/05/04 10:52:32;;;;;;;1.60;1.50;;;17.00;99.90;;;;;;4978731;28;20074;-86
2022/05/04 10:55:03;;;;;;;1.92;1.73;;;17.20;99.90;;;;;;4939823;28;20054;-86
2022/05/04 10:57:42;;;;;;;1.60;1.50;;;17.30;99.90;;;;;;4970424;28;20058;-83
2022/05/04 11:00:31;;;;;;;5.97;2.00;;;17.30;99.90;;;;;;4978335;28;20520;-85
2022/05/04 11:03:00;;;;;;;2.15;1.95;;;17.50;99.90;;;;;;4986618;28;20064;-83
2022/05/04 11:05:45;;;;;;;7.13;1.88;;;17.60;99.90;;;;;;4974761;28;20143;-85
2022/05/04 11:08:26;;;;;;;5.10;2.17;;;17.80;99.90;;;;;;4968823;28;20054;-85
2022/05/04 11:10:54;;;;;;;2.65;2.30;;;18.00;99.90;;;;;;4982100;28;20405;-86
2022/05/04 11:13:23;;;;;;;3.17;2.13;;;18.10;99.90;;;;;;4973975;28;20066;-87
2022/05/04 11:15:52;;;;;;;1.80;1.50;;;18.00;99.90;;;;;;4974075;28;20073;-83
2022/05/04 11:18:21;;;;;;;2.78;1.83;;;18.10;99.90;;;;;;4969418;28;20047;-85
2022/05/04 11:20:50;;;;;;;2.13;1.42;;;17.90;99.90;;;;;;4962093;28;20058;-87
2022/05/04 11:23:25;;;;;;;2.08;1.90;;;17.90;99.90;;;;;;4972629;28;20056;-84
2022/05/04 11:25:53;;;;;;;2.35;1.50;;;18.10;99.90;;;;;;4985609;28;20135;-84
2022/05/04 11:28:24;;;;;;;5.68;2.38;;;18.10;99.90;;;;;;4984743;28;20062;-83
2022/05/04 11:30:55;;;;;;;;;;;18.30;99.90;;;;;;4976323;28;20050;-85
2022/05/04 11:33:22;;;;;;;2.15;1.30;;;18.50;99.90;;;;;;4971116;28;19925;-84
2022/05/04 11:35:55;;;;;;;1.38;1.27;;;18.70;99.90;;;;;;4979367;28;20494;-84
2022/05/04 11:38:23;;;;;;;2.35;2.15;;;18.80;99.90;;;;;;4985944;28;20532;-85
2022/05/04 11:40:51;;;;;;;1.63;1.52;;;18.80;99.90;;;;;;4988965;28;20058;-84
2022/05/04 11:43:25;;;;;;;1.65;1.55;;;18.70;99.90;;;;;;4982679;28;21565;-85
2022/05/04 11:45:55;;;;;;;1.55;1.45;;;18.60;99.90;;;;;;4966146;28;20825;-84
2022/05/04 11:48:25;;;;;;;3.75;1.65;;;18.70;99.90;;;;;;4982743;28;20053;-84
2022/05/04 11:50:53;;;;;;;2.00;1.65;;;18.70;99.90;;;;;;4977549;28;20051;-83
2022/05/04 11:53:21;;;;;;;1.52;1.42;;;18.60;99.90;;;;;;4982472;28;20050;-83
2022/05/04 11:55:48;;;;;;;1.55;1.45;;;18.60;99.90;;;;;;4997135;28;20417;-80
2022/05/04 11:58:16;;;;;;;1.58;1.45;;;18.70;99.90;;;;;;4965793;28;20043;-79
2022/05/04 12:00:44;;;;;;;1.60;1.50;;;18.90;99.90;;;;;;4987216;28;20046;-79
2022/05/04 12:03:12;;;;;;;2.40;1.98;;;18.90;99.90;;;;;;4985643;28;20043;-84
2022/05/04 12:05:41;;;;;;;1.92;1.73;;;18.80;99.90;;;;;;4980396;28;20054;-83
2022/05/04 12:08:08;;;;;;;1.90;1.80;;;18.80;99.90;;;;;;4975092;28;20077;-83
2022/05/04 12:10:36;;;;;;;1.58;1.48;;;18.40;99.90;;;;;;4993687;28;20477;-83
2022/05/04 12:13:04;;;;;;;4.18;1.70;;;18.70;99.90;;;;;;4987696;28;20813;-83
2022/05/04 12:15:32;;;;;;;1.98;1.88;;;18.70;99.90;;;;;;4984932;28;20045;-83
2022/05/04 12:18:01;;;;;;;2.30;2.10;;;18.70;99.90;;;;;;4980814;28;20047;-82
2022/05/04 12:20:30;;;;;;;2.97;1.70;;;18.70;99.90;;;;;;4974696;28;20043;-84
2022/05/04 12:22:59;;;;;;;3.47;2.10;;;18.40;99.90;;;;;;4981976;28;20048;-84
2022/05/04 12:25:31;;;;;;;1.85;1.75;;;18.00;99.90;;;;;;4976972;28;20050;-83
2022/05/04 12:28:01;;;;;;;3.03;2.75;;;17.70;99.90;;;;;;4983264;28;20497;-84
2022/05/04 12:33:19;;;;;;;4.97;2.33;;;17.30;99.90;;;;;;4974650;28;20055;-83
2022/05/04 12:35:47;;;;;;;3.35;1.63;;;17.30;99.90;;;;;;4979849;28;20046;-83
2022/05/04 12:38:19;;;;;;;1.60;1.50;;;17.40;99.90;;;;;;4982421;28;20046;-85
2022/05/04 12:40:49;;;;;;;1.58;1.48;;;17.60;99.90;;;;;;4984724;28;20061;-81
2022/05/04 12:43:26;;;;;;;3.40;2.78;;;17.60;99.90;;;;;;4982719;28;20057;-84
2022/05/04 12:45:59;;;;;;;1.85;1.67;;;17.40;99.90;;;;;;4957291;28;20047;-82
2022/05/04 12:48:31;;;;;;;1.75;1.55;;;17.30;99.90;;;;;;4975602;28;20058;-82
2022/05/04 12:51:00;;;;;;;1.55;1.45;;;17.20;99.90;;;;;;4975257;28;20143;-82
2022/05/04 12:53:28;;;;;;;2.50;1.70;;;17.00;99.90;;;;;;4985271;28;20057;-82
2022/05/04 12:58:51;;;;;;;2.28;1.73;;;16.80;99.90;;;;;;4984539;28;20053;-80
2022/05/04 13:01:27;;;;;;;5.57;1.83;;;16.50;99.90;;;;;;4979987;28;20046;-81
2022/05/04 13:03:56;;;;;;;2.28;2.08;;;16.40;99.90;;;;;;4975394;28;20042;-81
2022/05/04 13:06:25;;;;;;;1.58;1.33;;;16.10;99.90;;;;;;4957039;28;20046;-82
2022/05/04 13:08:55;;;;;;;1.55;1.40;;;15.80;99.90;;;;;;4971879;28;20398;-81
2022/05/04 13:11:25;;;;;;;3.38;1.58;;;15.70;99.90;;;;;;4970440;28;20050;-82
2022/05/04 13:13:53;;;;;;;1.23;1.13;;;15.50;99.90;;;;;;4950532;28;20062;-82
2022/05/04 13:16:26;;;;;;;1.77;1.67;;;15.50;99.90;;;;;;4982764;28;20462;-83
2022/05/04 13:18:55;;;;;;;1.25;1.17;;;15.50;99.90;;;;;;4974143;28;20057;-84
2022/05/04 13:21:23;;;;;;;2.53;1.75;;;15.50;99.90;;;;;;4974284;28;20042;-84
2022/05/04 13:23:54;;;;;;;8.70;2.47;;;15.60;99.90;;;;;;4979092;28;20050;-82
2022/05/04 13:26:22;;;;;;;2.10;1.55;;;15.60;99.90;;;;;;5002939;28;20043;-82
2022/05/04 13:28:50;;;;;;;1.50;1.40;;;15.80;99.90;;;;;;4974364;28;20391;-82
2022/05/04 13:31:17;;;;;;;1.50;1.40;;;15.80;99.90;;;;;;4959132;28;20054;-84
2022/05/04 13:33:47;;;;;;;1.65;1.55;;;15.80;99.90;;;;;;4984839;28;20615;-85
2022/05/04 13:36:15;;;;;;;3.63;1.02;;;15.90;99.90;;;;;;4981879;28;20043;-84
2022/05/04 13:39:09;;;;;;;1.35;1.20;;;16.10;99.90;;;;;;4971535;28;20039;-84
2022/05/04 13:41:38;;;;;;;0.95;0.95;;;16.20;99.90;;;;;;4967617;28;20062;-84
2022/05/04 13:44:06;;;;;;;1.58;1.48;;;16.30;99.90;;;;;;4986365;28;20045;-83
2022/05/04 13:46:36;;;;;;;2.67;1.90;;;16.30;99.90;;;;;;4957881;28;20490;-83
2022/05/04 13:49:08;;;;;;;0.98;0.98;;;16.40;99.90;;;;;;4972286;28;20041;-84
2022/05/04 13:54:22;;;;;;;1.50;1.40;;;16.50;99.90;;;;;;4983166;28;20398;-84
2022/05/04 13:56:51;;;;;;;1.08;1.05;;;16.50;99.90;;;;;;4973908;28;20054;-84
2022/05/04 13:59:19;;;;;;;1.27;1.17;;;16.70;99.90;;;;;;4990764;28;20047;-83
2022/05/04 14:01:47;;;;;;;3.10;2.70;;;17.20;99.90;;;;;;4972712;28;20058;-85
2022/05/04 14:04:15;;;;;;;1.42;1.33;;;17.70;99.90;;;;;;4979520;28;20365;-86
2022/05/04 14:06:43;;;;;;;1.10;1.00;;;17.80;99.90;;;;;;4984383;28;20054;-84
2022/05/04 14:09:11;;;;;;;1.05;1.05;;;18.00;99.90;;;;;;4985470;28;20097;-84
2022/05/04 14:11:38;;;;;;;1.55;1.45;;;18.20;99.90;;;;;;4986009;28;20046;-84
2022/05/04 14:16:53;;;;;;;0.80;0.70;;;18.50;99.90;;;;;;4972450;28;20421;-84
2022/05/04 14:19:22;;;;;;;1.17;1.08;;;18.50;99.90;;;;;;4980270;28;20050;-83
2022/05/04 14:27:15;;;;;;;11.05;1.83;;;18.80;99.90;;;;;;4787432;29;20101;-84
2022/05/04 14:29:43;;;;;;;1.40;1.30;;;18.80;99.90;;;;;;4885313;29;20053;-85
2022/05/04 14:32:10;;;;;;;1.83;1.48;;;18.70;99.90;;;;;;4979097;28;20055;-84
2022/05/04 14:34:38;;;;;;;2.22;1.98;;;18.60;99.90;;;;;;4982576;28;20070;-82
2022/05/04 14:37:06;;;;;;;1.33;0.85;;;18.60;99.90;;;;;;4979506;28;20054;-82
2022/05/04 14:39:34;;;;;;;2.85;1.13;;;18.60;99.90;;;;;;4986952;28;20058;-85
2022/05/04 14:42:03;;;;;;;3.75;1.85;;;18.70;99.90;;;;;;4971012;28;20055;-83
2022/05/04 14:44:31;;;;;;;2.38;2.08;;;18.80;99.90;;;;;;4980954;28;20397;-84
2022/05/04 14:46:59;;;;;;;2.15;1.15;;;18.90;99.90;;;;;;4990045;28;20077;-84
2022/05/04 14:49:28;;;;;;;1.83;1.73;;;18.70;99.90;;;;;;4988959;28;20046;-84
2022/05/04 14:51:56;;;;;;;5.90;1.92;;;18.50;99.90;;;;;;4987137;28;20042;-84
2022/05/04 14:54:23;;;;;;;1.27;1.17;;;18.30;99.90;;;;;;4990051;28;20053;-85
2022/05/04 14:56:52;;;;;;;1.40;1.30;;;18.20;99.90;;;;;;4972967;28;20054;-85
2022/05/04 14:59:20;;;;;;;1.48;1.25;;;18.20;99.90;;;;;;4978976;28;20046;-84
2022/05/04 15:01:48;;;;;;;2.38;2.17;;;18.00;99.90;;;;;;4987962;28;20461;-84